Chandler Field Alexandria US
ICAO: KAXN
IATA: AXN
Category: Medium
Scheduled Services: No

Elevation: 1425 ft
TransAlt. 18000 ft.

Airport Communications:
ASOS:118.375
MINNEAPOLIS CNTR:126.1
PRINCETON RDO:122.6
CTAF/UNICOM:123

KAXN Zoom In..

Runways:

(A) RW 04 length 4098 ft width 75 ft
---- / hdg 45

(B) RW 13 length 5099 ft width 100 ft
---- / hdg 135

(C) RW 22 length 4098 ft width 75 ft
---- / hdg 225

(D) RW 31 length 5099 ft width 100 ft
ILS 110.50 / hdg 315

Location; KAXN
Day. 20 / Time. 02.27 Zulu
* Altimeter: 29.78
* Temperature: 19° c. 66.2°f.
* Wind from: 030° Speed 08 kn.
Dewpoint: 17° c.
Visibility: 9 Statute Miles.
Clouds: Broken 900 ft.
Clouds: Overcast 1400 ft.

KAXN 200227Z AUTO 03008KT 9SM BKN009 OVC014 19/17 A2978 RMK AO2 RAE00 CIG 006V011 P0000 T01890172


Wind From 030°
Speed 08 kn.

 
 
jpsmedia.com for Web Design worldairports.se 2018   terms of use